CHB6435 ZUCK-ZSHC
Flight info
| Callsign | CHB6435 |
|---|---|
| Flight time | N/A |
| Altitude | 35100 |
| Route | OLNER6Y OLNER B213 WHA R343 UPLEL W95 SAPIN A470 IGRAT IGRAT91 |
| Aircraft | A320/M-SDE3FGHIRWY/LB1 |
Departure
| Time | 2026-04-29 07:18 |
|---|---|
| Airport | Chongqing Jiangbei International Airport (ZUCK) |
Arrival
| Time | N/A |
|---|---|
| Airport | Hangzhou Xiaoshan International Airport (ZSHC) |
| Time | Latitude | Longitude | Altitude | Speed | Heading |
|---|---|---|---|---|---|
| 2026-04-29 06:59 | 29.73483 | 106.65596 | 1350 ft | 0 kts | 90° |
| 2026-04-29 07:09 | 29.73483 | 106.65575 | 1351 ft | 4 kts | 91° |
| 2026-04-29 07:09 | 29.73484 | 106.65545 | 1351 ft | 3 kts | 91° |
| 2026-04-29 07:09 | 29.73481 | 106.65515 | 1351 ft | 4 kts | 60° |
| 2026-04-29 07:09 | 29.73463 | 106.65495 | 1352 ft | 4 kts | 23° |
| 2026-04-29 07:10 | 29.73454 | 106.65490 | 1351 ft | 1 kts | 20° |
| 2026-04-29 07:10 | 29.73453 | 106.65490 | 1351 ft | 1 kts | 20° |
| 2026-04-29 07:12 | 29.73487 | 106.65505 | 1364 ft | 9 kts | 21° |
| 2026-04-29 07:12 | 29.73544 | 106.65531 | 1352 ft | 10 kts | 21° |
| 2026-04-29 07:12 | 29.73619 | 106.65573 | 1351 ft | 12 kts | 26° |
| 2026-04-29 07:12 | 29.73692 | 106.65614 | 1349 ft | 11 kts | 26° |
| 2026-04-29 07:13 | 29.73757 | 106.65654 | 1348 ft | 10 kts | 43° |
| 2026-04-29 07:13 | 29.73758 | 106.65729 | 1348 ft | 11 kts | 109° |
| 2026-04-29 07:13 | 29.73731 | 106.65833 | 1344 ft | 16 kts | 107° |
| 2026-04-29 07:13 | 29.73696 | 106.65966 | 1342 ft | 19 kts | 106° |
| 2026-04-29 07:14 | 29.73655 | 106.66127 | 1334 ft | 23 kts | 106° |
| 2026-04-29 07:14 | 29.73607 | 106.66312 | 1329 ft | 26 kts | 106° |
| 2026-04-29 07:14 | 29.73561 | 106.66490 | 1329 ft | 18 kts | 107° |
| 2026-04-29 07:14 | 29.73595 | 106.66585 | 1323 ft | 14 kts | 18° |
| 2026-04-29 07:15 | 29.73698 | 106.66619 | 1325 ft | 21 kts | 17° |
| 2026-04-29 07:15 | 29.73778 | 106.66714 | 1322 ft | 11 kts | 107° |
| 2026-04-29 07:15 | 29.73843 | 106.66771 | 1320 ft | 19 kts | 15° |
| 2026-04-29 07:15 | 29.73995 | 106.66821 | 1318 ft | 24 kts | 17° |
| 2026-04-29 07:16 | 29.74158 | 106.66878 | 1318 ft | 25 kts | 17° |
| 2026-04-29 07:16 | 29.74329 | 106.66939 | 1316 ft | 26 kts | 18° |
| 2026-04-29 07:16 | 29.74509 | 106.67004 | 1315 ft | 28 kts | 18° |
| 2026-04-29 07:16 | 29.74694 | 106.67068 | 1313 ft | 23 kts | 16° |
| 2026-04-29 07:17 | 29.74733 | 106.67146 | 1312 ft | 12 kts | 103° |
| 2026-04-29 07:17 | 29.74705 | 106.67238 | 1311 ft | 13 kts | 114° |
| 2026-04-29 07:17 | 29.74628 | 106.67246 | 1312 ft | 13 kts | 197° |
| 2026-04-29 07:17 | 29.74510 | 106.67205 | 1312 ft | 38 kts | 197° |
| 2026-04-29 07:18 | 29.74025 | 106.67039 | 1318 ft | 104 kts | 197° |
| 2026-04-29 07:18 | 29.73160 | 106.66739 | 1325 ft | 153 kts | 197° |
| 2026-04-29 07:18 | 29.72036 | 106.66355 | 1614 ft | 173 kts | 195° |
| 2026-04-29 07:18 | 29.70871 | 106.66019 | 2326 ft | 172 kts | 185° |
| 2026-04-29 07:19 | 29.69677 | 106.65923 | 3075 ft | 173 kts | 180° |
| 2026-04-29 07:19 | 29.68428 | 106.65899 | 3471 ft | 189 kts | 175° |
| 2026-04-29 07:19 | 29.67150 | 106.66457 | 3725 ft | 212 kts | 139° |
| 2026-04-29 07:19 | 29.66401 | 106.67960 | 4056 ft | 237 kts | 100° |
| 2026-04-29 07:20 | 29.66505 | 106.69946 | 4498 ft | 260 kts | 81° |
| 2026-04-29 07:20 | 29.66956 | 106.72040 | 5199 ft | 271 kts | 76° |
| 2026-04-29 07:20 | 29.67515 | 106.74129 | 6028 ft | 275 kts | 74° |
| 2026-04-29 07:20 | 29.68098 | 106.76236 | 6860 ft | 278 kts | 74° |
| 2026-04-29 07:21 | 29.68673 | 106.78371 | 7673 ft | 281 kts | 75° |
| 2026-04-29 07:21 | 29.69232 | 106.80531 | 8482 ft | 284 kts | 75° |
| 2026-04-29 07:21 | 29.69780 | 106.82724 | 9294 ft | 286 kts | 75° |
| 2026-04-29 07:21 | 29.70319 | 106.84943 | 10110 ft | 289 kts | 75° |
| 2026-04-29 07:22 | 29.70864 | 106.87213 | 10461 ft | 309 kts | 75° |
| 2026-04-29 07:22 | 29.71453 | 106.89687 | 10714 ft | 332 kts | 75° |
| 2026-04-29 07:22 | 29.72075 | 106.92308 | 11120 ft | 345 kts | 75° |
| 2026-04-29 07:22 | 29.72712 | 106.94993 | 11733 ft | 351 kts | 75° |
| 2026-04-29 07:23 | 29.73358 | 106.97716 | 12376 ft | 355 kts | 74° |
| 2026-04-29 07:23 | 29.74013 | 107.00477 | 13034 ft | 360 kts | 74° |
| 2026-04-29 07:23 | 29.74676 | 107.03270 | 13681 ft | 364 kts | 73° |
| 2026-04-29 07:23 | 29.75348 | 107.06099 | 14281 ft | 369 kts | 73° |
| 2026-04-29 07:24 | 29.76025 | 107.08962 | 14831 ft | 374 kts | 73° |
| 2026-04-29 07:24 | 29.76713 | 107.11871 | 15363 ft | 379 kts | 73° |
| 2026-04-29 07:24 | 29.77409 | 107.14813 | 15860 ft | 384 kts | 73° |
| 2026-04-29 07:24 | 29.78114 | 107.17795 | 16400 ft | 388 kts | 73° |
| 2026-04-29 07:25 | 29.78829 | 107.20815 | 16924 ft | 393 kts | 73° |
| 2026-04-29 07:25 | 29.79553 | 107.23870 | 17436 ft | 398 kts | 73° |
| 2026-04-29 07:25 | 29.80036 | 107.25913 | 17772 ft | 401 kts | 73° |
| 2026-04-29 07:25 | 29.80769 | 107.29034 | 18267 ft | 406 kts | 73° |
| 2026-04-29 07:26 | 29.81510 | 107.32190 | 18728 ft | 411 kts | 72° |
| 2026-04-29 07:26 | 29.82260 | 107.35389 | 19154 ft | 416 kts | 73° |
| 2026-04-29 07:26 | 29.83014 | 107.38616 | 19564 ft | 420 kts | 73° |
| 2026-04-29 07:26 | 29.83777 | 107.41885 | 19954 ft | 425 kts | 73° |
| 2026-04-29 07:27 | 29.84551 | 107.45189 | 20343 ft | 430 kts | 72° |
| 2026-04-29 07:27 | 29.85334 | 107.48542 | 20754 ft | 434 kts | 72° |
| 2026-04-29 07:27 | 29.86121 | 107.51919 | 21168 ft | 438 kts | 73° |
| 2026-04-29 07:27 | 29.86915 | 107.55327 | 21581 ft | 443 kts | 72° |
| 2026-04-29 07:28 | 29.87717 | 107.58769 | 21992 ft | 447 kts | 72° |
| 2026-04-29 07:28 | 29.88527 | 107.62243 | 22387 ft | 451 kts | 72° |
| 2026-04-29 07:28 | 29.89338 | 107.65743 | 22773 ft | 454 kts | 73° |
| 2026-04-29 07:28 | 29.90157 | 107.69288 | 23142 ft | 458 kts | 73° |
| 2026-04-29 07:29 | 29.90980 | 107.72852 | 23519 ft | 462 kts | 73° |
| 2026-04-29 07:29 | 29.91809 | 107.76450 | 23868 ft | 466 kts | 72° |
| 2026-04-29 07:29 | 29.92648 | 107.80079 | 24189 ft | 470 kts | 72° |
| 2026-04-29 07:29 | 29.93501 | 107.83734 | 24521 ft | 473 kts | 72° |
| 2026-04-29 07:30 | 29.94394 | 107.87388 | 24846 ft | 475 kts | 71° |
| 2026-04-29 07:30 | 29.95324 | 107.91050 | 25165 ft | 478 kts | 71° |
| 2026-04-29 07:30 | 29.96276 | 107.94737 | 25478 ft | 481 kts | 71° |
| 2026-04-29 07:31 | 29.98194 | 108.02179 | 26091 ft | 486 kts | 71° |
| 2026-04-29 07:31 | 29.99146 | 108.05933 | 26396 ft | 489 kts | 71° |
| 2026-04-29 07:31 | 30.00094 | 108.09706 | 26714 ft | 491 kts | 71° |
| 2026-04-29 07:31 | 30.01044 | 108.13499 | 27027 ft | 493 kts | 71° |
| 2026-04-29 07:32 | 30.01997 | 108.17315 | 27330 ft | 496 kts | 71° |
| 2026-04-29 07:32 | 30.02954 | 108.21146 | 27624 ft | 499 kts | 71° |
| 2026-04-29 07:32 | 30.03920 | 108.25011 | 27932 ft | 502 kts | 71° |
| 2026-04-29 07:32 | 30.04891 | 108.28890 | 28218 ft | 504 kts | 71° |
| 2026-04-29 07:33 | 30.05866 | 108.32781 | 28510 ft | 506 kts | 71° |
| 2026-04-29 07:33 | 30.06846 | 108.36698 | 28782 ft | 509 kts | 72° |
| 2026-04-29 07:33 | 30.07826 | 108.40636 | 29033 ft | 512 kts | 72° |
| 2026-04-29 07:33 | 30.08808 | 108.44590 | 29285 ft | 514 kts | 72° |
| 2026-04-29 07:34 | 30.09791 | 108.48564 | 29560 ft | 516 kts | 72° |
| 2026-04-29 07:34 | 30.10778 | 108.52566 | 29819 ft | 519 kts | 72° |
| 2026-04-29 07:34 | 30.11772 | 108.56577 | 30062 ft | 521 kts | 71° |
| 2026-04-29 07:34 | 30.12834 | 108.60590 | 30309 ft | 522 kts | 70° |
| 2026-04-29 07:35 | 30.13965 | 108.64532 | 30531 ft | 524 kts | 68° |
| 2026-04-29 07:35 | 30.15160 | 108.68501 | 30783 ft | 523 kts | 68° |
| 2026-04-29 07:35 | 30.16375 | 108.72462 | 31097 ft | 523 kts | 68° |
| 2026-04-29 07:35 | 30.17585 | 108.76431 | 31357 ft | 524 kts | 68° |
| 2026-04-29 07:36 | 30.18773 | 108.80402 | 31677 ft | 523 kts | 68° |
| 2026-04-29 07:36 | 30.19942 | 108.84400 | 31965 ft | 523 kts | 68° |
| 2026-04-29 07:36 | 30.21090 | 108.88389 | 32281 ft | 522 kts | 68° |
| 2026-04-29 07:36 | 30.22225 | 108.92372 | 32584 ft | 522 kts | 69° |
| 2026-04-29 07:37 | 30.23317 | 108.96376 | 32900 ft | 522 kts | 70° |
| 2026-04-29 07:37 | 30.24333 | 109.00395 | 33190 ft | 521 kts | 71° |
| 2026-04-29 07:37 | 30.25299 | 109.04436 | 33513 ft | 521 kts | 72° |
| 2026-04-29 07:37 | 30.26242 | 109.08478 | 33832 ft | 520 kts | 72° |
| 2026-04-29 07:38 | 30.27184 | 109.12511 | 34126 ft | 519 kts | 71° |
| 2026-04-29 07:38 | 30.28141 | 109.16532 | 34400 ft | 518 kts | 71° |
| 2026-04-29 07:38 | 30.29113 | 109.20548 | 34632 ft | 519 kts | 71° |
| 2026-04-29 07:38 | 30.30101 | 109.24562 | 34855 ft | 519 kts | 71° |
| 2026-04-29 07:39 | 30.31093 | 109.28577 | 35085 ft | 519 kts | 71° |
| 2026-04-29 07:39 | 30.32085 | 109.32599 | 35280 ft | 520 kts | 71° |
| 2026-04-29 07:39 | 30.33075 | 109.36634 | 35385 ft | 521 kts | 70° |
| 2026-04-29 07:39 | 30.33727 | 109.39298 | 35359 ft | 520 kts | 70° |
| 2026-04-29 07:40 | 30.34392 | 109.42024 | 35368 ft | 520 kts | 70° |